Anstey, United Kingdom
Current Conditions -  °F | °C
As of 10:20 PM on Thursday 23 Oct 2014 (Local Time) from EGNX Reporting Station
Scattered Clouds Scattered Clouds  
Wind Chill: 14°   Ceiling: Unl
Heat Index: 14°   Visibility: 6mi
Dew Point: 12°   Wind: 13mph
Humidity: 88%   Direction: 200°SSW
Pressure: 29.94"   Gusts: NA
Location:  52.65°N, 1.18°W
Report Text: EGNX 232120Z 20011KT 9999 SCT013 SCT022 14/12 Q1014
Loading
Personal Weather Stations






























Interactive Weather Map
Tropical Storm Tracking
New forecast layout! Learn more

10-Day Weather Forecast

Advertisements
Track Severe Weather on mobile